createdAt,value
2023-07-15T00:02:07.867Z,45.88
2023-07-15T00:04:37.111Z,46.20
2023-07-15T00:07:07.434Z,45.95
2023-07-15T00:09:36.428Z,46.19
2023-07-15T00:12:06.999Z,46.05
2023-07-15T00:14:35.763Z,46.15
2023-07-15T00:17:04.783Z,45.55
2023-07-15T00:19:34.504Z,45.19
2023-07-15T00:22:03.991Z,45.22
2023-07-15T00:24:32.788Z,45.21
2023-07-15T00:27:01.278Z,45.76
2023-07-15T00:29:31.238Z,46.00
2023-07-15T00:31:59.696Z,45.99
2023-07-15T00:34:29.967Z,45.72
2023-07-15T00:36:58.488Z,45.71
2023-07-15T00:39:27.276Z,46.01
2023-07-15T00:41:58.523Z,46.36
2023-07-15T00:44:26.629Z,46.04
2023-07-15T00:47:23.179Z,46.30
2023-07-15T00:49:52.869Z,46.41
2023-07-15T00:52:23.346Z,45.86
2023-07-15T00:54:55.364Z,45.71
2023-07-15T00:57:27.953Z,45.85
2023-07-15T00:59:59.824Z,46.35
2023-07-15T01:02:31.681Z,46.31
2023-07-15T01:05:00.349Z,46.50
2023-07-15T01:07:30.110Z,46.41
2023-07-15T01:09:58.549Z,46.78
2023-07-15T01:12:27.517Z,47.10
2023-07-15T01:14:56.014Z,47.66
2023-07-15T01:17:26.206Z,48.04
2023-07-15T01:19:56.000Z,48.18
2023-07-15T01:22:24.931Z,48.70
2023-07-15T01:24:54.909Z,48.91
2023-07-15T01:27:27.857Z,49.01
2023-07-15T01:29:56.483Z,49.26
2023-07-15T01:32:26.172Z,49.29
2023-07-15T01:34:54.637Z,49.48
2023-07-15T01:37:23.251Z,49.24
2023-07-15T01:39:54.238Z,49.42
2023-07-15T01:42:22.761Z,49.50
2023-07-15T01:44:52.098Z,50.15
2023-07-15T01:47:21.537Z,50.50
2023-07-15T01:49:49.965Z,50.74
2023-07-15T01:52:18.432Z,51.05
2023-07-15T01:54:46.823Z,51.30
2023-07-15T01:57:16.763Z,52.61
2023-07-15T01:59:45.105Z,53.25
2023-07-15T02:02:13.723Z,53.40
2023-07-15T02:04:42.299Z,54.77
2023-07-15T02:07:10.730Z,54.98
2023-07-15T02:09:40.552Z,55.31
2023-07-15T02:12:10.266Z,55.90
2023-07-15T02:14:40.014Z,57.44
2023-07-15T02:17:09.485Z,59.80
2023-07-15T02:19:38.752Z,60.07
2023-07-15T02:22:08.151Z,59.42
2023-07-15T02:24:36.471Z,59.59
2023-07-15T02:27:05.571Z,61.29
2023-07-15T02:29:33.962Z,61.45
2023-07-15T02:32:04.531Z,62.14
2023-07-15T02:34:32.984Z,63.29
2023-07-15T02:37:01.533Z,62.84
2023-07-15T02:39:29.932Z,63.51
2023-07-15T02:41:58.310Z,64.00
2023-07-15T02:44:26.684Z,65.04
2023-07-15T02:46:55.199Z,66.77
2023-07-15T02:49:25.125Z,68.61
2023-07-15T02:51:53.595Z,70.06
2023-07-15T02:54:21.924Z,69.04
2023-07-15T02:56:51.757Z,69.48
2023-07-15T02:59:20.210Z,70.95
2023-07-15T03:01:49.947Z,71.37
2023-07-15T03:04:18.471Z,72.63
2023-07-15T03:06:48.194Z,72.80
2023-07-15T03:09:16.557Z,71.32
2023-07-15T03:11:45.844Z,70.98
2023-07-15T03:14:14.282Z,71.45
2023-07-15T03:16:42.821Z,71.57
2023-07-15T03:19:11.218Z,71.61
2023-07-15T03:21:40.628Z,71.20
2023-07-15T03:24:11.782Z,71.44
2023-07-15T03:26:41.401Z,72.09
2023-07-15T03:29:10.586Z,74.21
2023-07-15T03:31:42.566Z,73.16
2023-07-15T03:34:11.085Z,73.74
2023-07-15T03:36:39.502Z,73.91
2023-07-15T03:39:08.294Z,73.06
2023-07-15T03:41:38.732Z,74.75
2023-07-15T03:44:07.248Z,75.29
2023-07-15T03:46:35.822Z,76.30
2023-07-15T03:49:04.369Z,75.06
2023-07-15T03:51:32.963Z,74.73
2023-07-15T03:54:01.289Z,73.70
2023-07-15T03:56:30.216Z,74.89
2023-07-15T03:59:00.462Z,76.22
2023-07-15T04:01:29.069Z,76.92
2023-07-15T04:03:57.600Z,76.27
2023-07-15T04:06:26.241Z,74.64
2023-07-15T04:08:54.852Z,73.89
2023-07-15T04:11:23.327Z,73.22
2023-07-15T04:13:51.729Z,72.26
2023-07-15T04:16:21.672Z,71.86
2023-07-15T04:18:50.030Z,71.30
2023-07-15T04:21:18.422Z,70.80
2023-07-15T04:23:46.914Z,70.32
2023-07-15T04:26:15.658Z,70.90
2023-07-15T04:28:44.223Z,71.03
2023-07-15T04:31:12.637Z,70.68
2023-07-15T04:33:42.420Z,70.53
2023-07-15T04:36:10.925Z,68.14
2023-07-15T04:38:39.283Z,68.01
2023-07-15T04:41:08.062Z,68.20
2023-07-15T04:43:36.461Z,68.10
2023-07-15T04:46:05.384Z,68.20
2023-07-15T04:48:34.443Z,67.60
2023-07-15T04:51:04.555Z,66.42
2023-07-15T04:53:33.049Z,67.53
2023-07-15T04:56:03.681Z,68.01
2023-07-15T04:58:32.367Z,67.92
2023-07-15T05:01:00.864Z,67.21
2023-07-15T05:03:29.280Z,65.64
2023-07-15T05:05:57.731Z,66.38
2023-07-15T05:08:29.221Z,67.16
2023-07-15T05:10:58.941Z,67.48
2023-07-15T05:13:27.487Z,65.96
2023-07-15T05:15:57.751Z,64.99
2023-07-15T05:18:26.282Z,64.83
2023-07-15T05:20:54.664Z,65.51
2023-07-15T05:23:24.838Z,65.46
2023-07-15T05:25:56.518Z,63.28
2023-07-15T05:28:27.413Z,62.39
2023-07-15T05:30:55.866Z,61.94
2023-07-15T05:33:24.415Z,61.89
2023-07-15T05:35:54.096Z,60.82
2023-07-15T05:38:24.224Z,60.49
2023-07-15T05:40:52.762Z,59.59
2023-07-15T05:43:22.721Z,60.01
2023-07-15T05:45:51.132Z,60.64
2023-07-15T05:48:19.633Z,60.07
2023-07-15T05:50:48.326Z,58.25
2023-07-15T05:53:16.840Z,58.39
2023-07-15T05:55:45.212Z,59.30
2023-07-15T05:58:13.667Z,59.43
2023-07-15T06:00:43.521Z,58.61
2023-07-15T06:03:12.075Z,58.75
2023-07-15T06:05:40.555Z,59.29
2023-07-15T06:08:08.996Z,58.72
2023-07-15T06:10:37.481Z,57.14
2023-07-15T06:13:06.106Z,55.80
2023-07-15T06:15:36.449Z,53.83
2023-07-15T06:18:06.203Z,52.72
2023-07-15T06:20:34.735Z,52.78
2023-07-15T06:23:03.397Z,52.43
2023-07-15T06:25:31.729Z,51.63
2023-07-15T06:28:00.188Z,50.95
2023-07-15T06:30:29.163Z,51.11
2023-07-15T06:32:57.755Z,51.33
2023-07-15T06:35:27.899Z,51.55
2023-07-15T06:37:56.324Z,51.45
2023-07-15T06:40:24.930Z,50.97
2023-07-15T06:42:53.421Z,50.68
2023-07-15T06:45:23.121Z,50.83
2023-07-15T06:47:52.004Z,50.67
2023-07-15T06:50:20.704Z,49.70
2023-07-15T06:52:50.353Z,49.01
2023-07-15T06:55:19.707Z,49.44
2023-07-15T06:57:48.294Z,50.57
2023-07-15T07:00:17.033Z,50.03
2023-07-15T07:02:46.353Z,50.15
2023-07-15T07:05:18.039Z,49.72
2023-07-15T07:07:48.149Z,48.63
2023-07-15T07:10:18.337Z,49.00
2023-07-15T07:12:47.397Z,49.57
2023-07-15T07:15:15.812Z,49.88
2023-07-15T07:17:44.362Z,49.12
2023-07-15T07:20:13.397Z,49.75
2023-07-15T07:22:42.228Z,50.76
2023-07-15T07:25:11.866Z,51.99
2023-07-15T07:27:41.675Z,53.00
2023-07-15T07:30:10.814Z,53.92
2023-07-15T07:32:39.288Z,55.38
2023-07-15T07:35:08.919Z,56.56
2023-07-15T07:37:37.394Z,56.71
2023-07-15T07:40:06.490Z,55.34
2023-07-15T07:42:35.176Z,54.89
2023-07-15T07:45:14.329Z,54.82
2023-07-15T07:47:42.885Z,55.12
2023-07-15T07:50:12.251Z,53.31
2023-07-15T07:52:40.783Z,53.54
2023-07-15T07:55:10.002Z,52.13
2023-07-15T07:57:38.346Z,52.63
2023-07-15T08:00:10.393Z,52.47
2023-07-15T08:02:38.960Z,52.49
2023-07-15T08:05:09.816Z,51.94
2023-07-15T08:07:38.368Z,50.60
2023-07-15T08:10:08.345Z,50.61
2023-07-15T08:12:36.702Z,49.86
2023-07-15T08:15:08.649Z,48.96
2023-07-15T08:17:39.148Z,49.74
2023-07-15T08:20:09.863Z,50.00
2023-07-15T08:22:38.837Z,48.99
2023-07-15T08:25:08.011Z,48.09
2023-07-15T08:27:36.500Z,47.83
2023-07-15T08:30:05.447Z,47.52
2023-07-15T08:32:33.975Z,47.50
2023-07-15T08:35:05.677Z,47.28
2023-07-15T08:37:34.627Z,47.63
2023-07-15T08:40:03.585Z,47.73
2023-07-15T08:42:32.777Z,48.09
2023-07-15T08:45:01.368Z,49.36
2023-07-15T08:47:30.004Z,49.03
2023-07-15T08:50:01.632Z,48.95
2023-07-15T08:52:32.254Z,49.16
2023-07-15T08:55:01.774Z,50.05
2023-07-15T08:57:30.329Z,48.47
2023-07-15T08:59:59.692Z,48.75
2023-07-15T09:02:28.310Z,49.21
2023-07-15T09:04:56.849Z,48.89
2023-07-15T09:07:29.001Z,49.03
2023-07-15T09:10:06.530Z,49.48
2023-07-15T09:12:35.073Z,49.84
2023-07-15T09:15:03.429Z,50.66
2023-07-15T09:17:31.790Z,51.01
2023-07-15T09:20:01.356Z,50.56
2023-07-15T09:22:30.666Z,50.77
2023-07-15T09:25:06.304Z,51.49
2023-07-15T09:27:34.947Z,52.35
2023-07-15T09:30:03.405Z,51.72
2023-07-15T09:32:33.892Z,51.44
2023-07-15T09:35:02.356Z,50.37
2023-07-15T09:37:32.070Z,49.48
2023-07-15T09:40:02.288Z,51.19
2023-07-15T09:42:32.320Z,49.39
2023-07-15T09:45:01.539Z,50.18
2023-07-15T09:47:30.465Z,50.13
2023-07-15T09:49:58.994Z,51.15
2023-07-15T09:52:28.515Z,51.28
2023-07-15T09:54:57.818Z,51.87
2023-07-15T09:57:26.986Z,51.31
2023-07-15T09:59:58.435Z,52.10
2023-07-15T10:02:35.382Z,51.49
2023-07-15T10:05:05.933Z,50.67
2023-07-15T10:07:35.520Z,51.38
2023-07-15T10:10:06.739Z,52.20
2023-07-15T10:12:35.746Z,53.58
2023-07-15T10:15:08.642Z,53.54
2023-07-15T10:17:39.106Z,55.82
2023-07-15T10:20:11.710Z,58.99
2023-07-15T10:22:41.369Z,61.53
2023-07-15T10:25:11.705Z,63.54
2023-07-15T10:27:41.217Z,66.40
2023-07-15T10:30:19.302Z,69.54
2023-07-15T10:33:13.302Z,72.78
2023-07-15T10:35:50.614Z,76.39
2023-07-15T10:38:24.639Z,96.42
2023-07-15T10:40:54.567Z,100.00
2023-07-15T10:43:24.352Z,100.00
2023-07-15T10:45:55.408Z,100.00
2023-07-15T10:48:24.788Z,100.00
2023-07-15T10:50:54.591Z,100.00
2023-07-15T10:53:24.616Z,100.00
2023-07-15T10:55:57.273Z,100.00
2023-07-15T10:58:25.949Z,100.00
2023-07-15T11:01:01.909Z,100.00
2023-07-15T11:03:32.197Z,100.00
2023-07-15T11:06:02.990Z,100.00
2023-07-15T11:08:32.770Z,100.00
2023-07-15T11:11:02.545Z,100.00
2023-07-15T11:13:31.628Z,100.00
2023-07-15T11:16:01.551Z,100.00
2023-07-15T11:18:30.446Z,100.00
2023-07-15T11:21:00.113Z,100.00
2023-07-15T11:23:30.655Z,100.00
2023-07-15T11:26:00.170Z,100.00
2023-07-15T11:28:28.700Z,100.00
2023-07-15T11:30:57.179Z,100.00
2023-07-15T11:33:27.046Z,100.00
2023-07-15T11:35:55.462Z,100.00
2023-07-15T11:38:31.391Z,100.00
2023-07-15T11:41:01.929Z,100.00
2023-07-15T11:43:32.683Z,100.00
2023-07-15T11:46:02.578Z,100.00
2023-07-15T11:48:33.964Z,97.96
2023-07-15T11:51:07.655Z,93.84
2023-07-15T11:53:38.345Z,93.92
2023-07-15T11:56:07.701Z,93.79
2023-07-15T11:58:44.607Z,88.15
2023-07-15T12:01:15.126Z,90.06
2023-07-15T12:03:46.109Z,86.88
2023-07-15T12:06:16.071Z,87.50
2023-07-15T12:08:45.125Z,83.65
2023-07-15T12:11:19.198Z,83.33
2023-07-15T12:13:47.625Z,78.79
2023-07-15T12:16:19.148Z,75.80
2023-07-15T12:18:51.027Z,74.15
2023-07-15T12:21:19.597Z,68.22
2023-07-15T12:23:48.035Z,66.21
2023-07-15T12:26:16.764Z,64.06
2023-07-15T12:28:45.640Z,61.78
2023-07-15T12:31:14.881Z,63.26
2023-07-15T12:33:43.802Z,62.66
2023-07-15T12:36:15.362Z,62.34
2023-07-15T12:38:44.722Z,62.89
2023-07-15T12:41:14.265Z,63.30
2023-07-15T12:43:43.010Z,64.83
2023-07-15T12:46:11.708Z,61.87
2023-07-15T12:48:40.693Z,62.58
2023-07-15T12:51:09.275Z,63.61
2023-07-15T12:53:39.457Z,63.94
2023-07-15T12:56:12.813Z,65.21
2023-07-15T12:58:41.969Z,66.63
2023-07-15T13:01:10.751Z,67.42
2023-07-15T13:03:39.859Z,69.13
2023-07-15T13:06:08.428Z,71.75
2023-07-15T13:08:38.760Z,72.51
2023-07-15T13:11:08.292Z,80.80
2023-07-15T13:13:36.832Z,87.37
2023-07-15T13:16:06.612Z,87.36
2023-07-15T13:18:35.118Z,89.11
2023-07-15T13:21:03.713Z,87.77
2023-07-15T13:23:32.261Z,100.00
2023-07-15T13:26:02.614Z,100.00
2023-07-15T13:28:31.129Z,100.00
2023-07-15T13:30:59.647Z,100.00
2023-07-15T13:33:28.045Z,100.00
2023-07-15T13:35:57.168Z,100.00
2023-07-15T13:38:26.192Z,100.00
2023-07-15T13:40:54.918Z,100.00
2023-07-15T13:43:24.803Z,100.00
2023-07-15T13:45:53.293Z,100.00
2023-07-15T13:48:22.024Z,94.45
2023-07-15T13:50:50.583Z,89.76
2023-07-15T13:53:19.028Z,82.51
2023-07-15T13:55:47.446Z,74.51
2023-07-15T13:58:15.967Z,73.94
2023-07-15T14:00:46.338Z,71.32
2023-07-15T14:03:14.873Z,67.81
2023-07-15T14:05:43.350Z,66.84
2023-07-15T14:08:11.842Z,62.42
2023-07-15T14:10:40.211Z,58.46
2023-07-15T14:13:08.746Z,57.72
2023-07-15T14:15:37.273Z,55.78
2023-07-15T14:18:08.962Z,54.61
2023-07-15T14:20:37.745Z,54.06
2023-07-15T14:23:06.156Z,53.38
2023-07-15T14:25:34.557Z,50.96
2023-07-15T14:28:03.017Z,50.58
2023-07-15T14:30:31.445Z,49.53
2023-07-15T14:32:59.928Z,48.45
2023-07-15T14:35:30.051Z,48.44
2023-07-15T14:37:58.394Z,48.30
2023-07-15T14:40:26.967Z,47.49
2023-07-15T14:42:55.371Z,46.47
2023-07-15T14:45:24.032Z,45.60
2023-07-15T14:47:52.574Z,43.85
2023-07-15T14:50:21.239Z,43.99
2023-07-15T14:52:50.979Z,44.06
2023-07-15T14:55:19.572Z,43.51
2023-07-15T14:57:48.049Z,42.37
2023-07-15T15:00:16.846Z,42.11
2023-07-15T15:02:45.534Z,42.58
2023-07-15T15:05:13.998Z,42.75
2023-07-15T15:07:42.426Z,42.58
2023-07-15T15:10:12.514Z,42.43
2023-07-15T15:12:41.020Z,41.91
2023-07-15T15:15:10.511Z,42.45
2023-07-15T15:17:38.981Z,43.45
2023-07-15T15:20:08.776Z,43.57
2023-07-15T15:22:38.986Z,43.67
2023-07-15T15:25:08.020Z,44.79
2023-07-15T15:27:37.791Z,43.84
2023-07-15T15:30:10.032Z,44.28
2023-07-15T15:32:40.886Z,44.53
2023-07-15T15:35:09.938Z,44.18
2023-07-15T15:37:38.906Z,44.09
2023-07-15T15:40:09.044Z,44.83
2023-07-15T15:42:40.581Z,45.94
2023-07-15T15:45:11.581Z,46.81
2023-07-15T15:47:41.064Z,46.21
2023-07-15T15:50:10.489Z,46.75
2023-07-15T15:52:39.800Z,45.42
2023-07-15T15:55:09.093Z,45.42
2023-07-15T15:57:38.864Z,45.62
2023-07-15T16:00:08.841Z,45.07
2023-07-15T16:02:42.997Z,44.16
2023-07-15T16:05:11.920Z,44.02
2023-07-15T16:07:40.524Z,42.67
2023-07-15T16:10:09.533Z,42.23
2023-07-15T16:12:42.003Z,41.91
2023-07-15T16:15:11.626Z,42.02
2023-07-15T16:17:40.089Z,42.11
2023-07-15T16:20:09.526Z,42.53
2023-07-15T16:22:38.358Z,42.68
2023-07-15T16:25:07.931Z,43.57
2023-07-15T16:27:36.410Z,43.87
2023-07-15T16:30:07.322Z,44.68
2023-07-15T16:32:35.804Z,44.66
2023-07-15T16:35:05.275Z,45.06
2023-07-15T16:37:33.783Z,44.33
2023-07-15T16:40:02.429Z,44.13
2023-07-15T16:42:30.838Z,43.45
2023-07-15T16:44:59.332Z,42.72
2023-07-15T16:47:29.229Z,41.69
2023-07-15T16:49:57.764Z,41.11
2023-07-15T16:52:26.235Z,40.99
2023-07-15T16:54:54.677Z,40.91
2023-07-15T16:57:23.103Z,41.41
2023-07-15T16:59:51.597Z,42.55
2023-07-15T17:02:20.220Z,42.51
2023-07-15T17:04:50.038Z,42.35
2023-07-15T17:07:18.579Z,43.13
2023-07-15T17:09:47.145Z,43.32
2023-07-15T17:12:16.396Z,43.40
2023-07-15T17:14:44.870Z,43.61
2023-07-15T17:17:13.268Z,43.51
2023-07-15T17:19:41.634Z,43.51
2023-07-15T17:22:12.493Z,44.04
2023-07-15T17:24:40.983Z,44.23
2023-07-15T17:27:09.480Z,44.39
2023-07-15T17:29:38.044Z,44.16
2023-07-15T17:32:06.683Z,44.49
2023-07-15T17:34:35.247Z,44.85
2023-07-15T17:37:03.919Z,44.89
2023-07-15T17:39:33.876Z,44.84
2023-07-15T17:42:03.337Z,44.53
2023-07-15T17:44:32.008Z,44.74
2023-07-15T17:47:03.345Z,45.02
2023-07-15T17:49:31.946Z,45.35
2023-07-15T17:52:00.569Z,45.11
2023-07-15T17:54:29.303Z,45.52
2023-07-15T17:56:59.114Z,45.83
2023-07-15T17:59:27.529Z,45.81
2023-07-15T18:01:55.996Z,45.64
2023-07-15T18:04:24.359Z,46.21
2023-07-15T18:06:52.842Z,48.63
2023-07-15T18:09:21.312Z,60.82
2023-07-15T18:11:49.805Z,76.14
2023-07-15T18:14:19.557Z,90.19
2023-07-15T18:16:48.033Z,99.70
2023-07-15T18:19:16.522Z,100.00
2023-07-15T18:21:44.986Z,100.00
2023-07-15T18:24:13.490Z,100.00
2023-07-15T18:26:42.886Z,100.00
2023-07-15T18:29:12.377Z,100.00
2023-07-15T18:31:42.193Z,100.00
2023-07-15T18:34:23.307Z,100.00
2023-07-15T18:36:53.285Z,100.00
2023-07-15T18:39:21.715Z,100.00
2023-07-15T18:41:50.193Z,100.00
2023-07-15T18:44:18.519Z,100.00
2023-07-15T18:46:48.445Z,100.00
2023-07-15T18:49:16.887Z,100.00
2023-07-15T18:51:45.225Z,100.00
2023-07-15T18:54:13.661Z,100.00
2023-07-15T18:56:42.208Z,100.00
2023-07-15T18:59:10.940Z,100.00
2023-07-15T19:01:39.574Z,100.00
2023-07-15T19:04:09.487Z,100.00
2023-07-15T19:06:37.977Z,100.00
2023-07-15T19:09:06.405Z,100.00
2023-07-15T19:11:37.424Z,100.00
2023-07-15T19:14:06.303Z,100.00
2023-07-15T19:16:34.876Z,100.00
2023-07-15T19:19:03.277Z,100.00
2023-07-15T19:21:33.205Z,100.00
2023-07-15T19:24:02.437Z,100.00
2023-07-15T19:26:30.977Z,100.00
2023-07-15T19:28:59.515Z,100.00
2023-07-15T19:31:28.021Z,100.00
2023-07-15T19:33:58.069Z,100.00
2023-07-15T19:36:26.869Z,100.00
2023-07-15T19:38:56.967Z,100.00
2023-07-15T19:41:25.501Z,100.00
2023-07-15T19:43:53.995Z,100.00
2023-07-15T19:46:22.535Z,100.00
2023-07-15T19:48:50.988Z,100.00
2023-07-15T19:51:31.032Z,100.00
2023-07-15T19:54:09.152Z,100.00
2023-07-15T19:56:37.593Z,100.00
2023-07-15T19:59:07.296Z,100.00
2023-07-15T20:01:36.295Z,100.00
2023-07-15T20:04:04.865Z,100.00
2023-07-15T20:06:33.258Z,100.00
2023-07-15T20:09:01.643Z,100.00
2023-07-15T20:11:34.521Z,100.00
2023-07-15T20:14:02.973Z,100.00
2023-07-15T20:16:31.457Z,100.00
2023-07-15T20:18:59.887Z,100.00
2023-07-15T20:21:28.362Z,100.00
2023-07-15T20:23:56.900Z,100.00
2023-07-15T20:26:25.474Z,100.00
2023-07-15T20:28:55.406Z,100.00
2023-07-15T20:31:24.039Z,100.00
2023-07-15T20:33:52.508Z,100.00
2023-07-15T20:36:20.965Z,100.00
2023-07-15T20:38:49.445Z,100.00
2023-07-15T20:41:19.245Z,100.00
2023-07-15T20:43:47.895Z,100.00
2023-07-15T20:46:18.034Z,100.00
2023-07-15T20:48:46.828Z,100.00
2023-07-15T20:51:16.494Z,100.00
2023-07-15T20:53:45.068Z,100.00
2023-07-15T20:56:14.106Z,100.00
2023-07-15T20:58:42.766Z,100.00
2023-07-15T21:01:11.363Z,100.00
2023-07-15T21:03:41.290Z,100.00
2023-07-15T21:06:09.888Z,100.00
2023-07-15T21:08:38.403Z,100.00
2023-07-15T21:11:06.817Z,100.00
2023-07-15T21:13:35.259Z,100.00
2023-07-15T21:16:03.687Z,100.00
2023-07-15T21:18:35.938Z,100.00
2023-07-15T21:21:06.208Z,100.00
2023-07-15T21:23:34.783Z,100.00
2023-07-15T21:26:07.144Z,100.00
2023-07-15T21:28:38.147Z,100.00
2023-07-15T21:31:07.425Z,100.00
2023-07-15T21:33:36.028Z,100.00
2023-07-15T21:36:06.177Z,100.00
2023-07-15T21:38:34.679Z,100.00
2023-07-15T21:41:03.096Z,100.00
2023-07-15T21:43:31.592Z,100.00
2023-07-15T21:46:00.094Z,100.00
2023-07-15T21:48:28.453Z,100.00
2023-07-15T21:50:57.741Z,100.00
2023-07-15T21:53:27.572Z,100.00
2023-07-15T21:55:57.001Z,100.00
2023-07-15T21:58:25.505Z,100.00
2023-07-15T22:00:58.590Z,100.00
2023-07-15T22:03:27.748Z,100.00
2023-07-15T22:05:56.991Z,100.00
2023-07-15T22:08:25.597Z,100.00
2023-07-15T22:10:55.591Z,100.00
2023-07-15T22:13:24.104Z,100.00
2023-07-15T22:15:52.640Z,100.00
2023-07-15T22:18:38.568Z,100.00
2023-07-15T22:21:08.898Z,100.00
2023-07-15T22:23:37.228Z,100.00
2023-07-15T22:26:06.995Z,100.00
2023-07-15T22:28:35.374Z,100.00
2023-07-15T22:31:03.811Z,100.00
2023-07-15T22:33:32.493Z,100.00
2023-07-15T22:36:00.862Z,100.00
2023-07-15T22:38:29.223Z,100.00
2023-07-15T22:40:57.687Z,100.00
2023-07-15T22:43:27.428Z,100.00
2023-07-15T22:45:57.353Z,100.00
2023-07-15T22:48:27.334Z,100.00
2023-07-15T22:50:56.432Z,100.00
2023-07-15T22:53:25.589Z,100.00
2023-07-15T22:55:54.252Z,100.00
2023-07-15T22:58:22.937Z,100.00
2023-07-15T23:00:57.388Z,100.00
2023-07-15T23:03:26.722Z,100.00
2023-07-15T23:05:55.382Z,100.00
2023-07-15T23:08:24.011Z,100.00
2023-07-15T23:10:52.454Z,100.00
2023-07-15T23:13:21.080Z,100.00
2023-07-15T23:15:59.437Z,100.00
2023-07-15T23:18:32.922Z,100.00
2023-07-15T23:21:01.292Z,100.00
2023-07-15T23:23:29.628Z,100.00
2023-07-15T23:25:57.998Z,100.00
2023-07-15T23:28:26.298Z,100.00
2023-07-15T23:30:54.832Z,100.00
2023-07-15T23:33:23.317Z,100.00
2023-07-15T23:35:53.496Z,100.00
2023-07-15T23:38:21.807Z,100.00
2023-07-15T23:40:50.598Z,100.00
2023-07-15T23:43:19.019Z,100.00
2023-07-15T23:45:47.380Z,100.00
2023-07-15T23:48:15.913Z,100.00
2023-07-15T23:50:44.285Z,100.00
2023-07-15T23:53:15.290Z,100.00
2023-07-15T23:55:43.670Z,100.00
2023-07-15T23:58:12.098Z,100.00
